createdAt,value
2018-03-06T00:00:25.901Z,92.00
2018-03-06T00:01:25.897Z,92.28
2018-03-06T00:02:25.902Z,92.19
2018-03-06T00:03:25.859Z,92.09
2018-03-06T00:04:25.885Z,92.38
2018-03-06T00:05:25.832Z,92.19
2018-03-06T00:06:25.818Z,92.47
2018-03-06T00:07:25.804Z,92.28
2018-03-06T00:08:25.795Z,92.28
2018-03-06T00:09:25.776Z,92.85
2018-03-06T00:10:25.763Z,92.85
2018-03-06T00:11:25.748Z,92.66
2018-03-06T00:12:25.734Z,92.47
2018-03-06T00:13:25.734Z,92.47
2018-03-06T00:14:25.955Z,92.47
2018-03-06T00:15:25.708Z,92.38
2018-03-06T00:16:25.679Z,92.66
2018-03-06T00:17:25.702Z,92.66
2018-03-06T00:18:25.652Z,92.38
2018-03-06T00:19:25.637Z,92.57
2018-03-06T00:20:25.672Z,92.94
2018-03-06T00:21:25.626Z,93.04
2018-03-06T00:22:25.596Z,92.57
2018-03-06T00:23:25.607Z,92.85
2018-03-06T00:24:25.570Z,92.28
2018-03-06T00:25:25.555Z,91.66
2018-03-06T00:26:25.558Z,91.38
2018-03-06T00:27:25.527Z,91.28
2018-03-06T00:28:25.518Z,91.19
2018-03-06T00:29:25.500Z,91.28
2018-03-06T00:30:25.486Z,91.38
2018-03-06T00:31:25.485Z,91.19
2018-03-06T00:32:25.497Z,90.72
2018-03-06T00:33:25.458Z,90.34
2018-03-06T00:34:25.449Z,90.34
2018-03-06T00:35:25.424Z,90.05
2018-03-06T00:36:25.403Z,90.72
2018-03-06T00:37:25.390Z,90.72
2018-03-06T00:38:25.413Z,91.00
2018-03-06T00:39:25.372Z,90.53
2018-03-06T00:40:25.352Z,90.34
2018-03-06T00:41:25.339Z,89.86
2018-03-06T00:42:25.323Z,89.67
2018-03-06T00:43:25.307Z,89.39
2018-03-06T00:44:25.314Z,89.58
2018-03-06T00:45:25.279Z,89.39
2018-03-06T00:46:25.269Z,89.48
2018-03-06T00:47:25.252Z,89.58
2018-03-06T00:48:25.238Z,89.29
2018-03-06T00:49:25.228Z,89.58
2018-03-06T00:50:25.255Z,88.92
2018-03-06T00:51:25.204Z,89.01
2018-03-06T00:52:25.235Z,89.11
2018-03-06T00:53:25.170Z,89.01
2018-03-06T00:54:25.160Z,88.82
2018-03-06T00:55:25.162Z,89.01
2018-03-06T00:56:25.143Z,89.01
2018-03-06T00:57:25.122Z,88.92
2018-03-06T00:58:25.150Z,88.44
2018-03-06T00:59:25.088Z,88.25
2018-03-06T01:00:25.074Z,88.44
2018-03-06T01:01:25.078Z,88.16
2018-03-06T01:02:25.047Z,88.16
2018-03-06T01:03:25.030Z,88.01
2018-03-06T01:04:25.017Z,88.06
2018-03-06T01:05:25.003Z,88.39
2018-03-06T01:06:24.989Z,88.39
2018-03-06T01:07:24.975Z,87.92
2018-03-06T01:08:25.034Z,88.39
2018-03-06T01:09:24.977Z,87.54
2018-03-06T01:10:24.945Z,87.45
2018-03-06T01:11:24.924Z,87.25
2018-03-06T01:12:24.911Z,87.35
2018-03-06T01:13:24.893Z,87.54
2018-03-06T01:14:24.933Z,87.45
2018-03-06T01:15:24.886Z,87.54
2018-03-06T01:16:24.861Z,87.45
2018-03-06T01:17:24.837Z,87.54
2018-03-06T01:18:24.827Z,87.73
2018-03-06T01:19:24.819Z,87.45
2018-03-06T01:20:24.798Z,87.82
2018-03-06T01:21:24.785Z,88.16
2018-03-06T01:22:24.768Z,88.10
2018-03-06T01:23:24.755Z,88.54
2018-03-06T01:24:24.741Z,88.54
2018-03-06T01:25:24.728Z,87.97
2018-03-06T01:26:24.715Z,88.35
2018-03-06T01:27:24.729Z,87.73
2018-03-06T01:28:24.693Z,87.35
2018-03-06T01:29:24.891Z,87.54
2018-03-06T01:30:24.660Z,87.35
2018-03-06T01:31:24.644Z,86.97
2018-03-06T01:32:24.650Z,87.35
2018-03-06T01:33:24.650Z,87.63
2018-03-06T01:34:24.609Z,87.54
2018-03-06T01:35:24.640Z,87.63
2018-03-06T01:36:24.578Z,87.92
2018-03-06T01:37:24.564Z,87.45
2018-03-06T01:38:24.562Z,86.97
2018-03-06T01:39:24.535Z,87.06
2018-03-06T01:40:24.522Z,87.54
2018-03-06T01:41:24.508Z,87.54
2018-03-06T01:42:24.494Z,87.35
2018-03-06T01:43:24.480Z,87.25
2018-03-06T01:44:24.467Z,87.45
2018-03-06T01:45:24.473Z,87.06
2018-03-06T01:46:24.441Z,87.45
2018-03-06T01:47:24.447Z,86.97
2018-03-06T01:48:24.411Z,87.35
2018-03-06T01:49:24.398Z,87.45
2018-03-06T01:50:24.385Z,87.92
2018-03-06T01:51:24.391Z,87.63
2018-03-06T01:52:24.357Z,87.92
2018-03-06T01:53:24.361Z,88.01
2018-03-06T01:54:24.331Z,87.97
2018-03-06T01:55:24.317Z,88.20
2018-03-06T01:56:24.304Z,88.63
2018-03-06T01:57:24.290Z,88.35
2018-03-06T01:58:24.277Z,88.44
2018-03-06T01:59:24.264Z,88.63
2018-03-06T02:00:24.250Z,88.06
2018-03-06T02:01:24.238Z,87.97
2018-03-06T02:02:24.224Z,88.25
2018-03-06T02:03:24.222Z,88.16
2018-03-06T02:04:24.252Z,88.16
2018-03-06T02:05:24.208Z,87.97
2018-03-06T02:06:24.171Z,87.97
2018-03-06T02:07:24.155Z,88.25
2018-03-06T02:08:24.141Z,87.49
2018-03-06T02:09:24.158Z,87.87
2018-03-06T02:10:24.115Z,87.97
2018-03-06T02:11:24.119Z,88.25
2018-03-06T02:12:24.087Z,87.97
2018-03-06T02:13:24.074Z,88.06
2018-03-06T02:14:24.060Z,88.16
2018-03-06T02:15:24.045Z,88.16
2018-03-06T02:16:24.031Z,88.63
2018-03-06T02:17:24.018Z,88.63
2018-03-06T02:18:24.004Z,89.20
2018-03-06T02:19:23.990Z,89.67
2018-03-06T02:20:23.976Z,89.48
2018-03-06T02:21:23.976Z,89.67
2018-03-06T02:22:24.175Z,89.77
2018-03-06T02:23:23.953Z,89.48
2018-03-06T02:24:23.921Z,89.29
2018-03-06T02:25:23.943Z,89.67
2018-03-06T02:26:23.893Z,89.20
2018-03-06T02:27:23.885Z,88.54
2018-03-06T02:28:23.866Z,88.63
2018-03-06T02:29:23.866Z,89.11
2018-03-06T02:30:23.844Z,88.92
2018-03-06T02:31:23.858Z,88.82
2018-03-06T02:32:23.810Z,88.63
2018-03-06T02:33:23.796Z,89.20
2018-03-06T02:34:23.782Z,89.01
2018-03-06T02:35:23.768Z,88.73
2018-03-06T02:36:23.754Z,88.92
2018-03-06T02:37:23.741Z,88.73
2018-03-06T02:38:23.727Z,89.58
2018-03-06T02:39:23.713Z,89.48
2018-03-06T02:40:23.734Z,89.29
2018-03-06T02:41:23.700Z,89.86
2018-03-06T02:42:23.672Z,89.77
2018-03-06T02:43:23.668Z,89.86
2018-03-06T02:44:23.642Z,89.58
2018-03-06T02:45:23.630Z,89.48
2018-03-06T02:46:23.624Z,90.24
2018-03-06T02:47:23.612Z,89.39
2018-03-06T02:48:23.587Z,90.05
2018-03-06T02:49:23.585Z,89.29
2018-03-06T02:50:23.559Z,89.67
2018-03-06T02:51:23.545Z,90.15
2018-03-06T02:52:23.532Z,89.58
2018-03-06T02:53:23.518Z,89.48
2018-03-06T02:54:23.504Z,89.86
2018-03-06T02:55:23.490Z,89.96
2018-03-06T02:56:23.476Z,89.67
2018-03-06T02:57:23.463Z,89.77
2018-03-06T02:58:23.475Z,89.58
2018-03-06T02:59:23.446Z,89.58
2018-03-06T03:00:23.645Z,90.15
2018-03-06T03:01:23.413Z,90.34
2018-03-06T03:02:23.395Z,89.96
2018-03-06T03:03:23.407Z,89.48
2018-03-06T03:04:23.364Z,89.48
2018-03-06T03:05:23.363Z,89.58
2018-03-06T03:06:23.575Z,89.48
2018-03-06T03:07:23.328Z,90.15
2018-03-06T03:08:23.309Z,89.96
2018-03-06T03:09:23.315Z,89.67
2018-03-06T03:10:23.281Z,89.86
2018-03-06T03:11:23.267Z,89.96
2018-03-06T03:12:23.256Z,89.86
2018-03-06T03:13:23.239Z,89.86
2018-03-06T03:14:23.225Z,90.39
2018-03-06T03:15:23.217Z,90.77
2018-03-06T03:16:23.196Z,90.86
2018-03-06T03:17:23.193Z,91.24
2018-03-06T03:18:23.203Z,91.14
2018-03-06T03:19:23.163Z,91.24
2018-03-06T03:20:23.141Z,91.43
2018-03-06T03:21:23.131Z,91.43
2018-03-06T03:22:23.112Z,91.71
2018-03-06T03:23:23.110Z,91.24
2018-03-06T03:24:23.116Z,91.33
2018-03-06T03:25:23.077Z,91.90
2018-03-06T03:26:23.053Z,91.71
2018-03-06T03:27:23.043Z,91.90
2018-03-06T03:28:23.024Z,92.47
2018-03-06T03:29:23.010Z,92.38
2018-03-06T03:30:22.997Z,92.85
2018-03-06T03:31:22.982Z,92.57
2018-03-06T03:32:22.967Z,92.38
2018-03-06T03:33:22.952Z,93.32
2018-03-06T03:34:22.938Z,93.46
2018-03-06T03:35:22.922Z,93.37
2018-03-06T03:36:22.916Z,93.37
2018-03-06T03:37:22.908Z,93.56
2018-03-06T03:38:22.932Z,93.46
2018-03-06T03:39:22.875Z,94.08
2018-03-06T03:40:22.850Z,93.99
2018-03-06T03:41:22.870Z,94.08
2018-03-06T03:42:22.848Z,93.51
2018-03-06T03:43:22.825Z,93.70
2018-03-06T03:44:22.823Z,93.42
2018-03-06T03:45:22.791Z,93.70
2018-03-06T03:46:22.767Z,93.51
2018-03-06T03:47:22.782Z,93.23
2018-03-06T03:48:22.736Z,93.23
2018-03-06T03:49:22.719Z,93.51
2018-03-06T03:50:22.705Z,92.94
2018-03-06T03:51:22.689Z,93.23
2018-03-06T03:52:22.675Z,93.65
2018-03-06T03:53:22.661Z,93.56
2018-03-06T03:54:22.648Z,93.94
2018-03-06T03:55:22.632Z,93.94
2018-03-06T03:56:22.615Z,93.94
2018-03-06T03:57:22.622Z,93.94
2018-03-06T03:58:22.587Z,94.23
2018-03-06T03:59:22.591Z,94.51
2018-03-06T04:00:22.556Z,95.17
2018-03-06T04:01:22.542Z,95.26
2018-03-06T04:02:22.527Z,95.36
2018-03-06T04:03:22.513Z,95.07
2018-03-06T04:04:22.498Z,95.26
2018-03-06T04:05:22.490Z,95.83
2018-03-06T04:06:22.467Z,95.64
2018-03-06T04:07:22.459Z,95.83
2018-03-06T04:08:22.436Z,95.07
2018-03-06T04:09:22.421Z,95.26
2018-03-06T04:10:22.409Z,94.89
2018-03-06T04:11:22.390Z,94.60
2018-03-06T04:12:22.375Z,94.70
2018-03-06T04:13:22.360Z,94.79
2018-03-06T04:14:22.349Z,94.70
2018-03-06T04:15:22.329Z,94.89
2018-03-06T04:16:22.314Z,94.79
2018-03-06T04:17:22.316Z,94.79
2018-03-06T04:18:22.319Z,94.23
2018-03-06T04:19:22.287Z,93.94
2018-03-06T04:20:22.257Z,94.04
2018-03-06T04:21:22.276Z,94.42
2018-03-06T04:22:22.224Z,94.70
2018-03-06T04:23:22.207Z,94.70
2018-03-06T04:24:22.208Z,94.98
2018-03-06T04:25:22.203Z,94.70
2018-03-06T04:26:22.164Z,95.36
2018-03-06T04:27:22.361Z,95.45
2018-03-06T04:28:22.134Z,95.45
2018-03-06T04:29:22.116Z,95.07
2018-03-06T04:30:22.113Z,95.45
2018-03-06T04:31:22.085Z,95.07
2018-03-06T04:32:22.071Z,94.89
2018-03-06T04:33:22.056Z,95.26
2018-03-06T04:34:22.041Z,95.17
2018-03-06T04:35:22.026Z,95.26
2018-03-06T04:36:22.010Z,95.36
2018-03-06T04:37:21.994Z,95.45
2018-03-06T04:38:21.988Z,95.55
2018-03-06T04:39:22.000Z,95.64
2018-03-06T04:40:21.964Z,95.26
2018-03-06T04:41:21.937Z,96.12
2018-03-06T04:42:21.928Z,96.21
2018-03-06T04:43:21.902Z,96.59
2018-03-06T04:44:21.889Z,95.74
2018-03-06T04:45:21.872Z,95.55
2018-03-06T04:46:21.883Z,95.64
2018-03-06T04:47:21.840Z,95.83
2018-03-06T04:48:21.843Z,95.45
2018-03-06T04:49:21.810Z,94.51
2018-03-06T04:50:21.795Z,94.51
2018-03-06T04:51:21.778Z,94.70
2018-03-06T04:52:21.765Z,94.32
2018-03-06T04:53:21.748Z,94.23
2018-03-06T04:54:21.734Z,93.84
2018-03-06T04:55:21.717Z,94.23
2018-03-06T04:56:21.702Z,93.75
2018-03-06T04:57:21.687Z,94.13
2018-03-06T04:58:21.671Z,94.23
2018-03-06T04:59:21.655Z,94.23
2018-03-06T05:00:21.669Z,94.79
2018-03-06T05:01:21.637Z,94.51
2018-03-06T05:02:21.664Z,94.32
2018-03-06T05:03:21.603Z,94.60
2018-03-06T05:04:21.578Z,94.60
2018-03-06T05:05:21.563Z,94.89
2018-03-06T05:06:21.572Z,94.70
2018-03-06T05:07:21.535Z,94.79
2018-03-06T05:08:21.526Z,94.79
2018-03-06T05:09:21.723Z,95.07
2018-03-06T05:10:21.492Z,95.26
2018-03-06T05:11:21.470Z,95.83
2018-03-06T05:12:21.485Z,95.78
2018-03-06T05:13:21.440Z,95.40
2018-03-06T05:14:21.425Z,95.88
2018-03-06T05:15:21.408Z,96.12
2018-03-06T05:16:21.394Z,95.55
2018-03-06T05:17:21.378Z,95.59
2018-03-06T05:18:21.363Z,95.50
2018-03-06T05:19:21.348Z,95.45
2018-03-06T05:20:21.333Z,96.02
2018-03-06T05:21:21.317Z,96.16
2018-03-06T05:22:21.328Z,96.64
2018-03-06T05:23:21.286Z,96.07
2018-03-06T05:24:21.294Z,96.64
2018-03-06T05:25:21.256Z,96.50
2018-03-06T05:26:21.241Z,96.59
2018-03-06T05:27:21.225Z,96.78
2018-03-06T05:28:21.210Z,96.02
2018-03-06T05:29:21.200Z,95.93
2018-03-06T05:30:21.212Z,96.02
2018-03-06T05:31:21.171Z,96.12
2018-03-06T05:32:21.149Z,95.97
2018-03-06T05:33:21.144Z,96.02
2018-03-06T05:34:21.118Z,96.26
2018-03-06T05:35:21.101Z,95.88
2018-03-06T05:36:21.087Z,96.69
2018-03-06T05:37:21.072Z,96.69
2018-03-06T05:38:21.056Z,96.40
2018-03-06T05:39:21.040Z,95.83
2018-03-06T05:40:21.033Z,96.21
2018-03-06T05:41:21.013Z,95.93
2018-03-06T05:42:20.994Z,95.64
2018-03-06T05:43:20.999Z,95.83
2018-03-06T05:44:20.971Z,96.59
2018-03-06T05:45:20.948Z,96.02
2018-03-06T05:46:20.933Z,96.50
2018-03-06T05:47:20.918Z,95.83
2018-03-06T05:48:20.901Z,95.83
2018-03-06T05:49:20.886Z,95.74
2018-03-06T05:50:20.871Z,96.02
2018-03-06T05:51:20.855Z,95.83
2018-03-06T05:52:20.840Z,95.17
2018-03-06T05:53:20.825Z,95.64
2018-03-06T05:54:20.815Z,95.83
2018-03-06T05:55:20.806Z,95.64
2018-03-06T05:56:20.779Z,95.64
2018-03-06T05:57:20.791Z,95.74
2018-03-06T05:58:20.749Z,96.02
2018-03-06T05:59:20.959Z,96.69
2018-03-06T06:00:20.723Z,96.02
2018-03-06T06:01:20.719Z,96.21
2018-03-06T06:02:20.731Z,96.59
2018-03-06T06:03:20.682Z,96.12
2018-03-06T06:04:20.658Z,96.50
2018-03-06T06:05:20.644Z,96.78
2018-03-06T06:06:20.628Z,96.78
2018-03-06T06:07:20.636Z,96.69
2018-03-06T06:08:20.597Z,95.93
2018-03-06T06:09:20.786Z,96.50
2018-03-06T06:10:20.571Z,96.88
2018-03-06T06:11:20.552Z,96.78
2018-03-06T06:12:20.537Z,96.78
2018-03-06T06:13:20.563Z,96.59
2018-03-06T06:14:20.509Z,96.69
2018-03-06T06:15:20.495Z,96.50
2018-03-06T06:16:20.478Z,96.78
2018-03-06T06:17:20.463Z,96.69
2018-03-06T06:18:20.447Z,96.78
2018-03-06T06:19:20.438Z,96.78
2018-03-06T06:20:20.416Z,96.78
2018-03-06T06:21:20.422Z,96.50
2018-03-06T06:22:20.387Z,96.78
2018-03-06T06:23:20.370Z,96.59
2018-03-06T06:24:20.435Z,96.78
2018-03-06T06:25:20.344Z,97.06
2018-03-06T06:26:20.326Z,96.88
2018-03-06T06:27:20.514Z,96.50
2018-03-06T06:28:20.296Z,96.69
2018-03-06T06:29:20.285Z,95.83
2018-03-06T06:30:20.316Z,96.50
2018-03-06T06:31:20.256Z,95.83
2018-03-06T06:32:20.235Z,96.31
2018-03-06T06:33:20.254Z,95.45
2018-03-06T06:34:20.207Z,95.74
2018-03-06T06:35:20.190Z,95.55
2018-03-06T06:36:20.177Z,95.83
2018-03-06T06:37:20.160Z,95.45
2018-03-06T06:38:20.149Z,95.45
2018-03-06T06:39:20.131Z,95.64
2018-03-06T06:40:20.116Z,95.17
2018-03-06T06:41:20.100Z,95.50
2018-03-06T06:42:20.086Z,95.31
2018-03-06T06:43:20.070Z,95.41
2018-03-06T06:44:20.056Z,95.60
2018-03-06T06:45:20.041Z,95.03
2018-03-06T06:46:20.028Z,95.12
2018-03-06T06:47:20.217Z,94.74
2018-03-06T06:48:19.997Z,94.93
2018-03-06T06:49:19.981Z,94.74
2018-03-06T06:51:19.954Z,94.65
2018-03-06T06:52:19.939Z,94.74
2018-03-06T06:53:19.968Z,95.12
2018-03-06T06:54:19.908Z,94.46
2018-03-06T06:55:19.893Z,94.65
2018-03-06T06:56:19.886Z,93.99
2018-03-06T06:57:19.864Z,94.13
2018-03-06T06:58:19.850Z,93.23
2018-03-06T06:59:19.835Z,92.90
2018-03-06T07:00:19.820Z,92.71
2018-03-06T07:01:19.806Z,92.33
2018-03-06T07:02:19.791Z,92.61
2018-03-06T07:03:19.776Z,92.14
2018-03-06T07:04:19.820Z,92.33
2018-03-06T07:05:19.748Z,91.76
2018-03-06T07:06:19.736Z,91.95
2018-03-06T07:07:19.720Z,91.28
2018-03-06T07:09:19.693Z,91.57
2018-03-06T07:10:19.745Z,92.14
2018-03-06T07:11:19.718Z,91.66
2018-03-06T07:12:19.654Z,91.47
2018-03-06T07:13:19.639Z,91.85
2018-03-06T07:14:19.664Z,91.28
2018-03-06T07:15:19.610Z,91.66
2018-03-06T07:16:19.597Z,91.00
2018-03-06T07:17:19.615Z,91.28
2018-03-06T07:18:19.572Z,90.72
2018-03-06T07:19:19.563Z,90.57
2018-03-06T07:20:19.546Z,89.62
2018-03-06T07:21:19.531Z,89.72
2018-03-06T07:22:19.518Z,90.29
2018-03-06T07:23:19.515Z,89.62
2018-03-06T07:24:19.495Z,89.15
2018-03-06T07:25:19.573Z,89.62
2018-03-06T07:26:19.467Z,89.72
2018-03-06T07:27:19.452Z,89.62
2018-03-06T07:28:19.519Z,89.53
2018-03-06T07:29:19.431Z,89.15
2018-03-06T07:30:19.414Z,88.87
2018-03-06T07:31:19.605Z,89.06
2018-03-06T07:32:19.389Z,89.15
2018-03-06T07:33:19.379Z,89.39
2018-03-06T07:34:19.372Z,89.29
2018-03-06T07:35:19.351Z,88.81
2018-03-06T07:36:19.375Z,89.29
2018-03-06T07:37:19.328Z,88.53
2018-03-06T07:38:19.316Z,88.91
2018-03-06T07:39:19.303Z,89.39
2018-03-06T07:40:19.291Z,88.91
2018-03-06T07:41:19.279Z,88.43
2018-03-06T07:42:19.492Z,87.49
2018-03-06T07:43:19.258Z,86.91
2018-03-06T07:44:19.242Z,87.34
2018-03-06T07:45:19.437Z,86.68
2018-03-06T07:46:19.219Z,87.01
2018-03-06T07:47:19.209Z,87.24
2018-03-06T07:48:19.236Z,86.58
2018-03-06T07:49:19.185Z,86.68
2018-03-06T07:50:19.173Z,86.30
2018-03-06T07:51:19.165Z,86.30
2018-03-06T07:52:19.150Z,85.53
2018-03-06T07:53:19.136Z,85.44
2018-03-06T07:54:19.130Z,85.06
2018-03-06T07:55:19.113Z,85.11
2018-03-06T07:56:19.122Z,84.72
2018-03-06T07:57:19.091Z,84.25
2018-03-06T07:58:19.081Z,84.44
2018-03-06T07:59:19.271Z,84.25
2018-03-06T08:00:19.061Z,84.16
2018-03-06T08:01:19.047Z,83.68
2018-03-06T08:03:19.024Z,83.59
2018-03-06T08:04:19.015Z,83.39
2018-03-06T08:05:19.004Z,84.34
2018-03-06T08:06:18.992Z,83.11
2018-03-06T08:07:18.980Z,83.49
2018-03-06T08:08:18.972Z,83.20
2018-03-06T08:09:18.959Z,83.11
2018-03-06T08:10:19.017Z,82.54
2018-03-06T08:11:18.936Z,82.87
2018-03-06T08:12:18.927Z,83.15
2018-03-06T08:13:19.121Z,83.91
2018-03-06T08:14:18.907Z,84.10
2018-03-06T08:15:18.893Z,84.63
2018-03-06T08:16:19.084Z,83.34
2018-03-06T08:17:18.871Z,83.06
2018-03-06T08:18:18.867Z,82.87
2018-03-06T08:19:18.849Z,81.82
2018-03-06T08:20:18.838Z,81.92
2018-03-06T08:21:18.828Z,81.82
2018-03-06T08:22:18.817Z,81.63
2018-03-06T08:23:18.806Z,81.44
2018-03-06T08:24:18.800Z,81.58
2018-03-06T08:25:18.785Z,81.63
2018-03-06T08:26:18.774Z,81.54
2018-03-06T08:27:18.966Z,80.82
2018-03-06T08:28:18.754Z,80.24
2018-03-06T08:29:18.743Z,80.34
2018-03-06T08:30:18.940Z,79.68
2018-03-06T08:31:18.721Z,79.49
2018-03-06T08:32:18.711Z,78.91
2018-03-06T08:33:18.708Z,79.14
2018-03-06T08:34:18.695Z,78.48
2018-03-06T08:35:18.683Z,78.67
2018-03-06T08:36:18.673Z,78.67
2018-03-06T08:37:18.664Z,77.28
2018-03-06T08:38:18.654Z,76.33
2018-03-06T08:39:18.645Z,75.47
2018-03-06T08:40:18.635Z,75.28
2018-03-06T08:41:18.709Z,75.57
2018-03-06T08:42:18.618Z,75.47
2018-03-06T08:43:18.609Z,75.38
2018-03-06T08:44:18.803Z,75.85
2018-03-06T08:45:18.594Z,75.95
2018-03-06T08:46:18.582Z,75.38
2018-03-06T08:47:18.573Z,75.19
2018-03-06T08:48:18.566Z,75.57
2018-03-06T08:49:18.557Z,75.57
2018-03-06T08:50:18.547Z,75.28
2018-03-06T08:51:18.537Z,75.76
2018-03-06T08:52:18.529Z,74.99
2018-03-06T08:53:18.520Z,75.28
2018-03-06T08:54:18.511Z,75.28
2018-03-06T08:55:18.602Z,75.28
2018-03-06T08:56:18.492Z,75.38
2018-03-06T08:57:18.484Z,75.57
2018-03-06T08:58:18.526Z,75.51
2018-03-06T08:59:18.465Z,75.42
2018-03-06T09:00:18.456Z,75.13
2018-03-06T09:01:18.455Z,75.79
2018-03-06T09:02:18.440Z,75.42
2018-03-06T09:03:18.430Z,74.18
2018-03-06T09:04:18.421Z,74.18
2018-03-06T09:05:18.616Z,74.18
2018-03-06T09:06:18.405Z,75.13
2018-03-06T09:07:18.396Z,74.27
2018-03-06T09:08:18.432Z,74.18
2018-03-06T09:09:18.379Z,73.80
2018-03-06T09:10:18.373Z,73.99
2018-03-06T09:11:18.361Z,73.89
2018-03-06T09:12:18.354Z,74.94
2018-03-06T09:13:18.345Z,75.23
2018-03-06T09:14:18.338Z,74.75
2018-03-06T09:15:18.328Z,74.94
2018-03-06T09:16:18.320Z,75.79
2018-03-06T09:17:18.349Z,75.99
2018-03-06T09:18:18.305Z,74.50
2018-03-06T09:20:18.290Z,75.07
2018-03-06T09:21:18.282Z,74.02
2018-03-06T09:22:18.319Z,73.74
2018-03-06T09:23:18.266Z,73.07
2018-03-06T09:24:18.259Z,73.36
2018-03-06T09:25:18.252Z,73.17
2018-03-06T09:26:18.248Z,72.78
2018-03-06T09:27:18.237Z,72.97
2018-03-06T09:28:18.230Z,73.07
2018-03-06T09:29:18.223Z,73.21
2018-03-06T09:30:18.317Z,73.01
2018-03-06T09:31:18.208Z,72.82
2018-03-06T09:32:18.202Z,73.01
2018-03-06T09:33:18.398Z,73.30
2018-03-06T09:34:18.189Z,73.11
2018-03-06T09:35:18.184Z,72.92
2018-03-06T09:36:18.221Z,72.63
2018-03-06T09:37:18.168Z,72.53
2018-03-06T09:38:18.163Z,72.44
2018-03-06T09:39:18.153Z,71.77
2018-03-06T09:40:18.151Z,71.96
2018-03-06T09:41:18.141Z,72.72
2018-03-06T09:42:18.134Z,72.44
2018-03-06T09:43:18.126Z,71.87
2018-03-06T09:44:18.330Z,72.92
2018-03-06T09:45:18.112Z,72.25
2018-03-06T09:46:18.106Z,71.87
2018-03-06T09:47:18.301Z,71.96
2018-03-06T09:48:18.094Z,71.58
2018-03-06T09:49:18.085Z,71.20
2018-03-06T09:50:18.082Z,70.82
2018-03-06T09:51:18.071Z,70.63
2018-03-06T09:52:18.069Z,72.06
2018-03-06T09:53:18.059Z,71.43
2018-03-06T09:54:18.053Z,70.76
2018-03-06T09:55:18.052Z,70.00
2018-03-06T09:56:18.046Z,70.15
2018-03-06T09:57:18.036Z,71.11
2018-03-06T09:59:18.025Z,72.16
2018-03-06T10:00:18.021Z,72.00
2018-03-06T10:01:18.050Z,70.95
2018-03-06T10:02:18.005Z,70.57
2018-03-06T10:03:18.000Z,69.23
2018-03-06T10:04:17.995Z,69.14
2018-03-06T10:05:18.015Z,69.52
2018-03-06T10:06:17.981Z,69.52
2018-03-06T10:07:17.977Z,69.52
2018-03-06T10:08:17.971Z,69.62
2018-03-06T10:09:17.967Z,69.52
2018-03-06T10:10:17.959Z,69.23
2018-03-06T10:11:17.952Z,69.52
2018-03-06T10:12:17.946Z,69.90
2018-03-06T10:13:18.031Z,69.90
2018-03-06T10:14:17.935Z,69.52
2018-03-06T10:15:17.930Z,69.62
2018-03-06T10:16:17.970Z,69.23
2018-03-06T10:17:17.918Z,68.85
2018-03-06T10:18:17.913Z,68.95
2018-03-06T10:19:17.910Z,68.70
2018-03-06T10:20:17.903Z,68.41
2018-03-06T10:21:17.900Z,67.27
2018-03-06T10:22:17.895Z,67.36
2018-03-06T10:23:17.891Z,67.83
2018-03-06T10:24:17.960Z,68.12
2018-03-06T10:25:17.883Z,68.03
2018-03-06T10:26:17.881Z,67.80
2018-03-06T10:27:17.924Z,67.99
2018-03-06T10:28:17.868Z,68.66
2018-03-06T10:29:17.863Z,69.14
2018-03-06T10:30:17.859Z,68.95
2018-03-06T10:31:17.853Z,69.96
2018-03-06T10:32:17.848Z,70.44
2018-03-06T10:33:17.873Z,70.06
2018-03-06T10:34:17.841Z,70.53
2018-03-06T10:35:17.914Z,71.30
2018-03-06T10:36:17.825Z,71.39
2018-03-06T10:37:17.819Z,70.86
2018-03-06T10:38:18.018Z,70.09
2018-03-06T10:39:17.810Z,69.81
2018-03-06T10:40:17.804Z,70.19
2018-03-06T10:41:17.847Z,69.90
2018-03-06T10:42:17.791Z,70.38
2018-03-06T10:43:17.784Z,69.33
2018-03-06T10:44:17.784Z,70.19
2018-03-06T10:45:17.774Z,70.19
2018-03-06T10:46:17.770Z,69.62
2018-03-06T10:47:17.762Z,69.33
2018-03-06T10:48:17.757Z,69.81
2018-03-06T10:49:17.829Z,69.46
2018-03-06T10:50:17.747Z,69.56
2018-03-06T10:51:17.740Z,69.08
2018-03-06T10:52:17.786Z,68.60
2018-03-06T10:53:17.728Z,68.76
2018-03-06T10:54:17.723Z,68.85
2018-03-06T10:55:17.736Z,69.71
2018-03-06T10:56:17.710Z,69.90
2018-03-06T10:57:17.705Z,70.47
2018-03-06T10:58:17.699Z,70.00
2018-03-06T10:59:17.692Z,71.23
2018-03-06T11:00:17.691Z,70.86
2018-03-06T11:01:17.698Z,71.43
2018-03-06T11:02:17.674Z,70.95
2018-03-06T11:03:17.875Z,70.86
2018-03-06T11:04:17.662Z,71.14
2018-03-06T11:05:17.656Z,70.86
2018-03-06T11:06:17.650Z,71.43
2018-03-06T11:07:17.643Z,71.23
2018-03-06T11:08:17.644Z,71.52
2018-03-06T11:09:17.725Z,70.61
2018-03-06T11:10:17.624Z,70.32
2018-03-06T11:11:17.626Z,70.70
2018-03-06T11:12:17.815Z,70.09
2018-03-06T11:13:17.605Z,70.57
2018-03-06T11:14:17.665Z,70.09
2018-03-06T11:15:17.622Z,70.47
2018-03-06T11:16:17.588Z,70.22
2018-03-06T11:17:17.581Z,69.93
2018-03-06T11:18:17.575Z,70.22
2018-03-06T11:19:17.566Z,69.93
2018-03-06T11:20:17.564Z,69.90
2018-03-06T11:21:17.555Z,70.09
2018-03-06T11:22:17.548Z,70.76
2018-03-06T11:23:17.622Z,70.67
2018-03-06T11:24:17.537Z,70.67
2018-03-06T11:25:17.529Z,70.76
2018-03-06T11:26:17.724Z,70.89
2018-03-06T11:27:17.515Z,70.19
2018-03-06T11:28:17.507Z,70.47
2018-03-06T11:29:17.504Z,70.95
2018-03-06T11:30:17.494Z,70.86
2018-03-06T11:31:17.486Z,70.57
2018-03-06T11:32:17.482Z,70.47
2018-03-06T11:33:17.473Z,70.00
2018-03-06T11:34:17.467Z,70.61
2018-03-06T11:35:17.460Z,69.93
2018-03-06T11:36:17.454Z,69.74
2018-03-06T11:37:17.530Z,69.27
2018-03-06T11:38:17.442Z,69.74
2018-03-06T11:39:17.433Z,69.56
2018-03-06T11:41:17.423Z,69.56
2018-03-06T11:42:17.417Z,69.59
2018-03-06T11:43:17.430Z,69.74
2018-03-06T11:44:17.407Z,69.46
2018-03-06T11:45:17.403Z,68.88
2018-03-06T11:46:17.394Z,69.65
2018-03-06T11:47:17.383Z,69.74
2018-03-06T11:48:17.377Z,70.13
2018-03-06T11:49:17.376Z,69.74
2018-03-06T11:50:17.365Z,69.46
2018-03-06T11:51:17.421Z,69.27
2018-03-06T11:52:17.351Z,69.46
2018-03-06T11:53:17.346Z,70.42
2018-03-06T11:54:17.544Z,70.42
2018-03-06T11:55:17.335Z,70.51
2018-03-06T11:56:17.326Z,70.42
2018-03-06T11:57:17.320Z,70.42
2018-03-06T11:58:17.313Z,69.37
2018-03-06T11:59:17.307Z,69.46
2018-03-06T12:00:17.300Z,69.56
2018-03-06T12:01:17.294Z,69.74
2018-03-06T12:02:17.289Z,69.27
2018-03-06T12:03:17.282Z,70.32
2018-03-06T12:04:17.276Z,70.61
2018-03-06T12:05:17.269Z,69.84
2018-03-06T12:06:17.263Z,68.92
2018-03-06T12:07:17.461Z,69.17
2018-03-06T12:08:17.250Z,69.46
2018-03-06T12:09:17.244Z,70.22
2018-03-06T12:10:17.442Z,69.65
2018-03-06T12:11:17.231Z,70.22
2018-03-06T12:12:17.256Z,69.27
2018-03-06T12:13:17.240Z,69.37
2018-03-06T12:14:17.215Z,69.27
2018-03-06T12:15:17.205Z,69.31
2018-03-06T12:16:17.262Z,69.31
2018-03-06T12:17:17.204Z,68.63
2018-03-06T12:18:17.191Z,68.54
2018-03-06T12:19:17.180Z,68.35
2018-03-06T12:20:17.174Z,67.58
2018-03-06T12:21:17.167Z,68.35
2018-03-06T12:22:17.164Z,68.73
2018-03-06T12:23:17.159Z,67.68
2018-03-06T12:24:17.353Z,67.97
2018-03-06T12:25:17.144Z,68.44
2018-03-06T12:26:17.142Z,68.06
2018-03-06T12:28:17.125Z,68.73
2018-03-06T12:29:17.119Z,68.26
2018-03-06T12:30:17.131Z,68.73
2018-03-06T12:31:17.110Z,68.51
2018-03-06T12:32:17.101Z,70.16
2018-03-06T12:33:17.096Z,69.59
2018-03-06T12:34:17.091Z,69.21
2018-03-06T12:35:17.088Z,69.78
2018-03-06T12:36:17.076Z,69.49
2018-03-06T12:37:17.070Z,69.40
2018-03-06T12:38:17.130Z,70.45
2018-03-06T12:39:17.059Z,71.08
2018-03-06T12:40:17.051Z,71.21
2018-03-06T12:41:17.076Z,72.51
2018-03-06T12:42:17.038Z,72.23
2018-03-06T12:43:17.031Z,72.80
2018-03-06T12:44:17.027Z,73.56
2018-03-06T12:45:17.018Z,73.08
2018-03-06T12:46:17.013Z,72.99
2018-03-06T12:47:17.003Z,72.99
2018-03-06T12:48:16.995Z,72.61
2018-03-06T12:49:17.021Z,72.71
2018-03-06T12:50:16.982Z,72.99
2018-03-06T12:51:16.977Z,72.99
2018-03-06T12:52:17.174Z,72.99
2018-03-06T12:53:16.961Z,72.74
2018-03-06T12:54:16.954Z,71.84
2018-03-06T12:55:16.965Z,72.23
2018-03-06T12:56:16.941Z,73.18
2018-03-06T12:57:16.934Z,72.99
2018-03-06T12:58:16.926Z,72.80
2018-03-06T12:59:16.918Z,72.74